Main page
METAR-TAF:

METAR-TAF

Airports :

Diori Hamani International Airport

Niamey, Niger

latitude: 13-29N, longitude: 002-10E, elevation: 223 m

Current weather observation

The report was made 1 hour and 10 minutes ago, at 21:00 UTC
Wind 5 kt from the North
Temperature 25°C
Humidity 8%
Pressure 1013 hPa
Visibility: 8000 m

METAR: DRRN 222100Z 01005KT 8000 NSC 25/M12 Q1013 NOSIG

Time: 23:10 (22:10 UTC)

Forecast

The report was made 5 hours and 10 minutes ago, at 17:00 UTC
Forecast valid from 22 at 18 UTC to 23 at 24 UTC
Wind 8 kt from the North/Northwest
Visibility: 8000 m
Temporary
from 22 at 18 UTC to 22 at 20 UTC
Visibility: 4000 m
widespread dust
Temporary
from 23 at 06 UTC to 23 at 08 UTC
Visibility: 3500 m
widespread dust

TAF: DRRN 221700Z 2218/2324 33008KT 8000 NSC TEMPO 2218/2220 4000 DU TEMPO 2306/2308 3500 DU

Weather observations and forecasts of more than 4000 airports (METAR and TAF reports).

The available stations are represented by yellow and red dots on the map.

Hover mouse over dot to see the name of the station.

Then click to see weather observations and forecasts.

To change the map : click on the green buttons with a black cross to zoom in, on the green button with a dash to zoom out, or on the green arrows for adjacent maps.


METAR-TAF: